Time;durP1;ratioP1;P1;durP2;ratioP2;P2;SDS_P1;SDS_P2;PMS_P1;PMS_P2;Temp;Humidity;BMP_temperature;BMP_pressure;BME280_temperature;BME280_humidity;BME280_pressure;Samples;Min_cycle;Max_cycle;Signal;HPM_P1;HPM_P2
2022/08/07 00:02:25;;;;;;;;;;;23.40;67.50;;;22.87;62.52;96183.25;4146135;34;20087;-85
2022/08/07 00:04:53;;;;;;;;;;;23.40;67.50;;;22.86;62.08;96184.41;4149297;34;20055;-86
2022/08/07 00:07:22;;;;;;;;;;;23.40;67.40;;;22.85;62.31;96182.78;4151885;34;19903;-86
2022/08/07 00:09:50;;;;;;;;;;;23.40;67.40;;;22.85;62.36;96185.59;4128918;34;20365;-85
2022/08/07 00:12:19;;;;;;;;;;;23.40;67.30;;;22.85;62.33;96188.38;4151986;34;19936;-85
2022/08/07 00:14:47;;;;;;;;;;;23.40;67.40;;;22.85;62.27;96187.56;4151487;34;19903;-85
2022/08/07 00:17:17;;;;;;;;;;;23.40;67.30;;;22.83;62.73;96185.94;4151301;34;19910;-85
2022/08/07 00:19:46;;;;;;;;;;;23.40;67.40;;;22.84;62.04;96189.53;4151405;34;19907;-85
2022/08/07 00:22:14;;;;;;;;;;;23.40;67.40;;;22.83;62.33;96190.69;4150829;34;19903;-84
2022/08/07 00:24:43;;;;;;;;;;;23.40;67.40;;;22.83;62.41;96196.28;4151434;34;20051;-85
2022/08/07 00:27:11;;;;;;;;;;;23.40;67.30;;;22.83;61.91;96194.31;4128590;34;20162;-84
2022/08/07 00:29:40;;;;;;;;;;;23.40;67.30;;;22.83;61.94;96191.53;4151520;34;19911;-85
2022/08/07 00:32:10;;;;;;;;;;;23.40;67.30;;;22.82;62.28;96195.47;4173389;33;20181;-85
2022/08/07 00:34:40;;;;;;;;;;;23.40;67.40;;;22.83;61.97;96194.31;4128589;34;19982;-84
2022/08/07 00:37:08;;;;;;;;;;;23.40;67.30;;;22.82;62.08;96194.66;4151887;34;19904;-85
2022/08/07 00:39:37;;;;;;;;;;;23.40;67.30;;;22.80;62.22;96203.38;4152166;34;20100;-85
2022/08/07 00:42:07;;;;;;;;;;;23.40;67.30;;;22.82;62.33;96205.81;4127900;34;20154;-84
2022/08/07 00:44:35;;;;;;;;;;;23.40;67.30;;;22.80;62.20;96199.75;4151188;34;19910;-84
2022/08/07 00:47:05;;;;;;;;;;;23.40;67.30;;;22.81;61.82;96198.59;4151974;34;20146;-85
2022/08/07 00:49:34;;;;;;;;;;;23.40;67.20;;;22.81;61.88;96199.44;4176156;34;19903;-84
2022/08/07 00:52:05;;;;;;;;;;;23.40;67.20;;;22.80;62.00;96197.81;4155269;34;20214;-85
2022/08/07 00:54:34;;;;;;;;;;;23.30;67.30;;;22.80;62.28;96202.56;4178559;34;20087;-85
2022/08/07 00:57:04;;;;;;;;;;;23.40;67.30;;;22.79;62.22;96203.72;4178490;34;20025;-84
2022/08/07 00:59:33;;;;;;;;;;;23.30;67.20;;;22.80;62.16;96208.97;4178561;34;20118;-86
2022/08/07 01:02:02;;;;;;;;;;;23.30;67.20;;;22.79;61.88;96206.50;4178193;34;20134;-84
2022/08/07 01:04:31;;;;;;;;;;;23.30;67.20;;;22.80;61.91;96208.13;4201573;33;19979;-85
2022/08/07 01:07:00;;;;;;;;;;;23.30;67.20;;;22.78;62.02;96204.91;4155402;34;20214;-85
2022/08/07 01:09:30;;;;;;;;;;;23.30;67.20;;;22.78;61.64;96204.91;4158985;34;20333;-84
2022/08/07 01:11:59;;;;;;;;;;;23.30;67.20;;;22.78;61.94;96216.06;4150656;34;20109;-85
2022/08/07 01:14:28;;;;;;;;;;;23.40;67.10;;;22.78;62.20;96205.72;4127737;34;20258;-84
2022/08/07 01:16:56;;;;;;;;;;;23.30;67.20;;;22.78;61.55;96210.50;4127985;34;19961;-84
2022/08/07 01:19:27;;;;;;;;;;;23.30;67.10;;;22.77;61.90;96211.66;4150740;34;19903;-84
2022/08/07 01:21:57;;;;;;;;;;;23.30;67.10;;;22.77;61.80;96214.44;4150629;34;20055;-84
2022/08/07 01:24:29;;;;;;;;;;;23.30;67.10;;;22.76;61.77;96213.63;4150919;34;20123;-84
2022/08/07 01:26:58;;;;;;;;;;;23.30;67.90;;;22.76;61.57;96212.81;4128046;34;19907;-84
2022/08/07 01:29:28;;;;;;;;;;;23.30;67.00;;;22.76;61.60;96212.81;4144122;34;20192;-84
2022/08/07 01:31:57;;;;;;;;;;;23.30;67.00;;;22.75;61.62;96211.19;4177901;34;20134;-84
2022/08/07 01:34:25;;;;;;;;;;;23.30;67.00;;;22.75;61.64;96209.19;4155108;34;19910;-84
2022/08/07 01:36:54;;;;;;;;;;;23.30;67.80;;;22.75;61.82;96211.19;4177997;34;19910;-84
2022/08/07 01:39:27;;;;;;;;;;;23.30;66.90;;;22.74;61.61;96203.97;4155198;34;19964;-84
2022/08/07 01:42:03;;;;;;;;;;;23.30;66.90;;;22.75;61.60;96208.38;4166628;34;19911;-87
2022/08/07 01:44:33;;;;;;;;;;;23.30;66.90;;;22.74;61.58;96213.13;4150608;34;19911;-84
2022/08/07 01:47:02;;;;;;;;;;;23.30;66.90;;;22.73;61.44;96214.31;4127952;34;20087;-86
2022/08/07 01:49:32;;;;;;;;;;;23.30;66.80;;;22.74;61.79;96206.75;4141129;34;19903;-84
2022/08/07 01:52:01;;;;;;;;;;;23.30;66.80;;;22.72;61.68;96200.72;4154739;34;19903;-85
2022/08/07 01:54:35;;;;;;;;;;;23.30;66.70;;;22.72;61.69;96200.72;4177888;34;19903;-85
2022/08/07 01:57:07;;;;;;;;;;;23.30;66.70;;;22.72;61.36;96207.09;4178740;34;20134;-85
2022/08/07 01:59:43;;;;;;;;;;;23.30;66.70;;;22.72;61.54;96203.50;4177799;34;19903;-84
2022/08/07 02:02:17;;;;;;;;;;;23.30;66.80;;;22.71;61.44;96202.69;4154332;34;20430;-85
2022/08/07 02:04:50;;;;;;;;;;;23.30;66.70;;;22.71;61.62;96196.28;4177706;34;19967;-84
2022/08/07 02:07:21;;;;;;;;;;;23.30;66.60;;;22.71;61.69;96201.88;4177742;34;19944;-85
2022/08/07 02:09:53;;;;;;;;;;;23.30;66.60;;;22.70;61.53;96208.63;4154838;34;20427;-84
2022/08/07 02:12:23;;;;;;;;;;;23.30;66.70;;;22.70;61.41;96205.81;4177120;34;20142;-85
2022/08/07 02:14:56;;;;;;;;;;;23.20;66.60;;;22.68;61.43;96206.97;4177731;34;19952;-84
2022/08/07 02:17:36;;;;;;;;;;;23.20;66.50;;;22.67;61.56;96205.34;4154689;34;19904;-85
2022/08/07 02:20:05;;;;;;;;;;;23.30;66.70;;;22.68;61.20;96206.19;4224153;33;19903;-85
2022/08/07 02:22:35;;;;;;;;;;;23.20;66.60;;;22.69;61.68;96207.81;4154184;34;20137;-84
2022/08/07 02:25:06;;;;;;;;;;;23.20;66.60;;;22.68;61.35;96218.16;4177650;34;20324;-84
2022/08/07 02:27:35;;;;;;;;;;;23.20;66.50;;;22.68;61.54;96218.16;4154547;34;20164;-85
2022/08/07 02:30:05;;;;;;;;;;;23.20;66.60;;;22.67;61.52;96210.13;4176965;34;20155;-85
2022/08/07 02:32:36;;;;;;;;;;;23.20;66.50;;;22.67;61.31;96212.94;4176798;34;19910;-85
2022/08/07 02:35:06;;;;;;;;;;;23.20;66.40;;;22.67;61.33;96216.53;4154604;34;19910;-85
2022/08/07 02:37:38;;;;;;;;;;;23.20;66.40;;;22.66;61.42;96217.69;4149811;34;19911;-85
2022/08/07 02:40:11;;;;;;;;;;;23.20;66.40;;;22.66;61.46;96214.88;4150068;34;19903;-86
2022/08/07 02:42:41;;;;;;;;;;;23.20;66.40;;;22.66;61.22;96223.25;4149366;34;19903;-85
2022/08/07 02:45:12;;;;;;;;;;;23.20;66.40;;;22.65;61.47;96221.66;4127245;34;19911;-84
2022/08/07 02:47:41;;;;;;;;;;;23.20;66.40;;;22.65;61.21;96232.81;4149874;34;19903;-84
2022/08/07 02:50:16;;;;;;;;;;;23.20;66.40;;;22.65;61.27;96232.81;4126739;34;19904;-84
2022/08/07 02:52:48;;;;;;;;;;;23.20;66.50;;;22.65;61.62;96230.03;4125814;34;19904;-84
2022/08/07 02:55:20;;;;;;;;;;;23.20;66.50;;;22.66;61.35;96230.84;4127145;34;20057;-84
2022/08/07 02:57:49;;;;;;;;;;;23.20;66.50;;;22.66;61.07;96225.25;4127075;34;19974;-84
2022/08/07 03:00:17;;;;;;;;;;;23.20;66.40;;;22.64;61.23;96222.81;4135754;34;20263;-86
2022/08/07 03:02:47;;;;;;;;;;;23.20;66.40;;;22.65;61.03;96230.03;4153809;34;19903;-85
2022/08/07 03:05:18;;;;;;;;;;;23.20;66.30;;;22.64;61.50;96222.81;4154337;34;20365;-85
2022/08/07 03:07:46;;;;;;;;;;;23.20;66.40;;;22.63;61.11;96235.13;4177003;34;19903;-85
2022/08/07 03:10:17;;;;;;;;;;;23.20;66.30;;;22.63;61.02;96234.31;4154329;34;19904;-85
2022/08/07 03:12:46;;;;;;;;;;;23.20;66.20;;;22.63;61.19;96237.94;4153622;34;19923;-85
2022/08/07 03:15:17;;;;;;;;;;;23.20;66.20;;;22.62;61.25;96233.50;4177164;34;19903;-85
2022/08/07 03:17:46;;;;;;;;;;;23.20;66.30;;;22.62;61.05;96243.84;4154162;34;20225;-85
2022/08/07 03:20:15;;;;;;;;;;;23.20;66.30;;;22.62;61.21;96235.47;4177066;34;19910;-85
2022/08/07 03:22:43;;;;;;;;;;;23.20;66.20;;;22.62;60.89;96236.31;4153574;34;19910;-85
2022/08/07 03:25:12;;;;;;;;;;;23.20;66.10;;;22.61;61.06;96229.09;4177110;34;20157;-84
2022/08/07 03:27:46;;;;;;;;;;;23.20;66.10;;;22.61;60.91;96231.88;4154092;34;19903;-84
2022/08/07 03:30:16;;;;;;;;;;;23.20;66.20;;;22.60;61.01;96244.19;4154162;34;20144;-85
2022/08/07 03:32:47;;;;;;;;;;;23.20;66.20;;;22.61;61.23;96251.41;4153405;34;19949;-85
2022/08/07 03:35:21;;;;;;;;;;;23.20;66.40;;;22.61;61.49;96245.84;4176917;34;19904;-85
2022/08/07 03:37:53;;;;;;;;;;;23.20;66.40;;;22.62;61.15;96243.84;4153930;34;20020;-85
2022/08/07 03:40:23;;;;;;;;;;;23.20;66.30;;;22.61;61.20;96251.41;4177676;34;20226;-85
2022/08/07 03:42:53;;;;;;;;;;;23.20;66.40;;;22.62;61.35;96249.41;4155875;34;19910;-85
2022/08/07 03:45:24;;;;;;;;;;;23.20;66.30;;;22.62;61.28;96250.25;4179357;34;19952;-85
2022/08/07 03:47:53;;;;;;;;;;;23.20;66.20;;;22.63;61.37;96249.09;4179368;34;20238;-85
2022/08/07 03:50:23;;;;;;;;;;;23.20;66.20;;;22.64;60.96;96256.31;4156180;34;19910;-84
2022/08/07 03:52:56;;;;;;;;;;;23.20;66.20;;;22.64;61.07;96256.31;4155919;34;19914;-84
2022/08/07 03:55:24;;;;;;;;;;;23.20;66.00;;;22.66;61.07;96267.09;4179215;34;19903;-84
2022/08/07 03:57:54;;;;;;;;;;;23.20;66.00;;;22.66;60.92;96261.53;4129145;34;19990;-84
2022/08/07 04:00:23;;;;;;;;;;;23.20;66.00;;;22.67;60.81;96261.16;4151681;34;20096;-84
2022/08/07 04:02:54;;;;;;;;;;;23.20;65.70;;;22.68;61.07;96259.22;4128393;34;19913;-84
2022/08/07 04:05:30;;;;;;;;;;;23.20;65.70;;;22.70;60.56;96258.84;4151719;34;19911;-85
2022/08/07 04:07:59;;;;;;;;;;;23.30;65.90;;;22.69;60.91;96260.84;4151603;34;20020;-85
2022/08/07 04:10:28;;;;;;;;;;;23.30;66.00;;;22.72;60.83;96268.50;4151674;34;20021;-85
2022/08/07 04:12:59;;;;;;;;;;;23.30;66.10;;;22.74;60.95;96260.59;4151127;34;19959;-84
2022/08/07 04:15:28;;;;;;;;;;;23.30;66.20;;;22.76;61.29;96268.63;4128938;34;20172;-84
2022/08/07 04:17:57;;;;;;;;;;;23.30;66.20;;;22.77;61.00;96273.06;4151545;34;19903;-84
2022/08/07 04:20:25;;;;;;;;;;;23.30;66.40;;;22.78;61.14;96271.88;4128938;34;20215;-84
2022/08/07 04:22:54;;;;;;;;;;;23.30;66.30;;;22.80;61.30;96275.13;4128237;34;19910;-84
2022/08/07 04:25:24;;;;;;;;;;;23.40;66.20;;;22.81;61.10;96277.59;4128836;34;19911;-85
2022/08/07 04:27:53;;;;;;;;;;;23.40;66.30;;;22.83;61.10;96282.81;4151253;34;19903;-84
2022/08/07 04:30:23;;;;;;;;;;;23.40;66.30;;;22.85;61.46;96283.28;4151319;34;20108;-84
2022/08/07 04:32:56;;;;;;;;;;;23.40;66.30;;;22.88;61.28;96293.75;4150802;34;20136;-84
2022/08/07 04:35:25;;;;;;;;;;;23.40;66.20;;;22.89;61.35;96284.22;4151172;34;20185;-84
2022/08/07 04:37:55;;;;;;;;;;;23.50;66.40;;;22.92;61.22;96289.06;4128722;34;20343;-84
2022/08/07 04:40:25;;;;;;;;;;;23.50;66.40;;;22.93;61.27;96281.53;4128568;34;19903;-84
2022/08/07 04:42:54;;;;;;;;;;;23.50;66.50;;;22.96;61.51;96284.44;4128009;34;19910;-84
2022/08/07 04:45:24;;;;;;;;;;;23.50;66.50;;;22.98;61.42;96287.69;4128395;34;19928;-84
2022/08/07 04:48:00;;;;;;;;;;;23.50;66.40;;;23.01;61.32;96285.38;4128511;34;20293;-84
2022/08/07 04:50:33;;;;;;;;;;;23.60;66.40;;;23.02;61.59;96292.59;4128471;34;20271;-83
2022/08/07 04:53:14;;;;;;;;;;;23.60;66.40;;;23.05;61.61;96294.66;4127615;34;19903;-85
2022/08/07 04:55:47;;;;;;;;;;;23.60;66.50;;;23.07;61.78;96295.94;4151933;34;20120;-85
2022/08/07 04:58:22;;;;;;;;;;;23.60;66.40;;;23.10;61.20;96300.00;4128610;34;20162;-84
2022/08/07 05:00:57;;;;;;;;;;;23.70;66.30;;;23.10;61.54;96303.63;4128278;34;20129;-85
2022/08/07 05:03:31;;;;;;;;;;;23.70;66.30;;;23.12;61.26;96297.69;4148928;34;19904;-85
2022/08/07 05:06:03;;;;;;;;;;;23.70;66.20;;;23.13;61.42;96288.94;4178429;34;19910;-86
2022/08/07 05:08:40;;;;;;;;;;;23.70;66.30;;;23.14;61.49;96295.38;4178543;34;19918;-85
2022/08/07 05:11:12;;;;;;;;;;;23.70;66.30;;;23.15;61.24;96299.78;4178262;34;19903;-85
2022/08/07 05:13:47;;;;;;;;;;;23.70;66.20;;;23.15;61.56;96299.78;4154998;34;19926;-85
2022/08/07 05:16:17;;;;;;;;;;;23.70;66.20;;;23.17;61.30;96297.47;4178279;34;19903;-86
2022/08/07 05:18:51;;;;;;;;;;;23.70;66.20;;;23.19;60.95;96299.91;4178233;34;20146;-85
2022/08/07 05:21:21;;;;;;;;;;;23.80;65.90;;;23.19;60.92;96297.91;4178409;34;19903;-84
2022/08/07 05:23:53;;;;;;;;;;;23.80;66.00;;;23.20;60.90;96302.34;4177635;34;19904;-84
2022/08/07 05:26:23;;;;;;;;;;;23.80;65.80;;;23.23;61.17;96309.25;4178199;34;19910;-84
2022/08/07 05:28:56;;;;;;;;;;;23.80;65.80;;;23.25;61.21;96313.31;4155288;34;19916;-84
2022/08/07 05:31:32;;;;;;;;;;;23.80;65.80;;;23.28;61.03;96306.19;4178152;34;19903;-84
2022/08/07 05:34:02;;;;;;;;;;;23.80;65.60;;;23.31;61.06;96307.44;4154420;34;19903;-84
2022/08/07 05:36:32;;;;;;;;;;;23.90;65.70;;;23.34;60.85;96309.56;4178049;34;20007;-84
2022/08/07 05:39:01;;;;;;;;;;;23.90;65.70;;;23.38;60.82;96313.28;4178173;34;20246;-85
2022/08/07 05:41:30;;;;;;;;;;;23.90;65.70;;;23.43;60.81;96321.44;4178064;34;20148;-85
2022/08/07 05:43:59;;;;;;;;;;;24.00;65.50;;;23.48;60.62;96325.97;4177594;34;20102;-84
2022/08/07 05:46:29;;;;;;;;;;;24.00;65.40;;;23.48;60.57;96323.97;4177949;34;20130;-85
2022/08/07 05:48:59;;;;;;;;;;;24.10;65.30;;;23.49;60.40;96330.38;4177977;34;20034;-85
2022/08/07 05:51:27;;;;;;;;;;;24.10;65.40;;;23.49;60.25;96322.81;4154983;34;20114;-85
2022/08/07 05:53:56;;;;;;;;;;;24.10;65.30;;;23.51;60.38;96322.44;4154613;34;19975;-85
2022/08/07 05:56:25;;;;;;;;;;;24.10;65.20;;;23.53;60.50;96328.50;4154932;34;20222;-84
2022/08/07 05:58:54;;;;;;;;;;;24.10;65.20;;;23.53;60.16;96326.53;4154951;34;20061;-84
2022/08/07 06:01:26;;;;;;;;;;;24.10;65.20;;;23.54;59.98;96328.16;4154797;34;19910;-84
2022/08/07 06:03:58;;;;;;;;;;;24.10;65.20;;;23.57;60.04;96330.22;4138249;34;19904;-85
2022/08/07 06:06:26;;;;;;;;;;;24.20;65.10;;;23.60;59.97;96334.31;4150307;34;20140;-84
2022/08/07 06:08:56;;;;;;;;;;;24.20;64.90;;;23.63;59.84;96333.59;4150482;34;20131;-85
2022/08/07 06:11:25;;;;;;;;;;;24.20;64.80;;;23.65;59.92;96336.84;4150343;34;19977;-84
2022/08/07 06:13:53;;;;;;;;;;;24.20;64.70;;;23.67;60.17;96337.31;4163710;34;20241;-85
2022/08/07 06:16:23;;;;;;;;;;;24.20;64.70;;;23.69;59.94;96336.97;4154504;34;20140;-84
2022/08/07 06:18:52;;;;;;;;;;;24.30;64.70;;;23.70;60.01;96339.41;4154700;34;19940;-85
2022/08/07 06:22:06;;;;;;;;;;;24.30;64.70;;;23.73;59.83;96340.69;4177435;34;19903;-85
2022/08/07 06:24:56;;;;;;;;;;;24.30;64.70;;;23.74;59.95;96347.91;4154744;34;20162;-85
2022/08/07 06:27:25;;;;;;;;;;;24.30;64.60;;;23.74;60.06;96336.72;4154728;34;20159;-85
2022/08/07 06:29:54;;;;;;;;;;;24.30;64.50;;;23.75;59.66;96338.34;4177401;34;20384;-85
2022/08/07 06:32:22;;;;;;;;;;;24.30;64.60;;;23.77;59.64;96344.41;4176943;34;19910;-86
2022/08/07 06:34:51;;;;;;;;;;;24.30;64.50;;;23.78;59.98;96340.44;4154551;34;19903;-86
2022/08/07 06:37:21;;;;;;;;;;;24.30;64.60;;;23.78;60.09;96340.44;4177467;34;19910;-85
2022/08/07 06:39:52;;;;;;;;;;;24.40;64.60;;;23.81;59.80;96339.75;4177311;34;19910;-85
2022/08/07 06:42:25;;;;;;;;;;;24.40;64.50;;;23.83;59.62;96340.19;4187804;33;19993;-86
2022/08/07 06:45:11;;;;;;;;;;;24.40;64.40;;;23.84;59.44;96341.81;4149718;34;19911;-86
2022/08/07 06:47:41;;;;;;;;;;;24.40;64.30;;;23.85;59.36;96340.63;4127182;34;19918;-86
2022/08/07 06:50:11;;;;;;;;;;;24.40;65.20;;;23.88;59.64;96336.34;4127066;34;20166;-86
2022/08/07 06:52:46;;;;;;;;;;;24.40;64.20;;;23.90;59.64;96336.78;4126604;34;19910;-86
2022/08/07 06:55:20;;;;;;;;;;;24.50;64.40;;;23.89;59.72;96347.16;4147687;34;19903;-86
2022/08/07 06:58:10;;;;;;;;;;;24.50;64.40;;;23.91;59.64;96346.78;4200254;33;20017;-85
2022/08/07 07:01:15;;;;;;;;;;;24.50;64.30;;;23.94;59.68;96334.09;4176925;34;19918;-84
2022/08/07 07:03:48;;;;;;;;;;;24.50;64.30;;;23.95;59.34;96338.50;4177427;34;20119;-84
2022/08/07 07:06:16;;;;;;;;;;;24.50;64.20;;;23.97;59.54;96339.00;4154009;34;20168;-85
2022/08/07 07:08:46;;;;;;;;;;;24.50;64.30;;;23.99;59.56;96342.25;4154167;34;20031;-85
2022/08/07 07:11:15;;;;;;;;;;;24.50;64.20;;;23.99;59.10;96333.88;4176986;34;19903;-85
2022/08/07 07:13:47;;;;;;;;;;;24.50;64.20;;;24.02;59.30;96333.16;4153737;34;19911;-85
2022/08/07 07:16:21;;;;;;;;;;;24.50;65.10;;;24.06;59.30;96336.88;4149307;34;19911;-85
2022/08/07 07:18:52;;;;;;;;;;;24.60;64.20;;;24.08;59.07;96331.72;4149708;34;19904;-85
2022/08/07 07:21:24;;;;;;;;;;;24.60;64.10;;;24.08;59.17;96331.72;4149378;34;20708;-85
2022/08/07 07:23:54;;;;;;;;;;;24.60;64.00;;;24.12;58.99;96340.25;4126578;34;20208;-85
2022/08/07 07:26:23;;;;;;;;;;;24.60;63.90;;;24.13;58.96;96337.06;4127011;34;19992;-85
2022/08/07 07:28:55;;;;;;;;;;;24.60;63.90;;;24.15;59.08;96340.34;4126920;34;20166;-85
2022/08/07 07:31:27;;;;;;;;;;;24.60;63.80;;;24.16;58.99;96332.75;4126964;34;19904;-85
2022/08/07 07:33:59;;;;;;;;;;;24.70;63.90;;;24.19;58.85;96343.22;4148970;34;19904;-85
2022/08/07 07:36:28;;;;;;;;;;;24.70;63.90;;;24.20;58.82;96344.84;4149531;34;19944;-85
2022/08/07 07:38:58;;;;;;;;;;;24.70;63.80;;;24.21;58.86;96341.69;4126909;34;20352;-85
2022/08/07 07:41:26;;;;;;;;;;;24.70;63.80;;;24.24;58.84;96344.94;4149361;34;20157;-85
2022/08/07 07:43:55;;;;;;;;;;;24.70;63.80;;;24.23;58.85;96335.75;4148880;34;19923;-85
2022/08/07 07:46:24;;;;;;;;;;;24.70;63.80;;;24.23;58.69;96334.94;4126617;34;19999;-84
2022/08/07 07:48:52;;;;;;;;;;;24.70;63.70;;;24.21;58.84;96329.69;4149453;34;19911;-85
2022/08/07 07:51:21;;;;;;;;;;;24.70;63.70;;;24.21;59.11;96324.09;4144696;34;20159;-85
2022/08/07 07:53:50;;;;;;;;;;;24.70;63.80;;;24.20;59.04;96323.28;4126365;34;19978;-85
2022/08/07 07:56:20;;;;;;;;;;;24.70;63.90;;;24.21;58.81;96324.09;4149493;34;19904;-85
2022/08/07 07:58:49;;;;;;;;;;;24.70;63.80;;;24.20;58.89;96326.06;4149250;34;20029;-85
2022/08/07 08:01:18;;;;;;;;;;;24.70;63.90;;;24.21;58.93;96327.72;4169337;34;19910;-85
2022/08/07 08:03:46;;;;;;;;;;;24.70;63.90;;;24.21;59.17;96316.50;4153222;34;19907;-85
2022/08/07 08:06:15;;;;;;;;;;;24.70;63.90;;;24.21;59.17;96324.91;4153628;34;19910;-85
2022/08/07 08:08:43;;;;;;;;;;;24.70;64.00;;;24.20;59.04;96323.28;4153840;34;20132;-86
2022/08/07 08:11:12;;;;;;;;;;;24.70;63.90;;;24.17;59.00;96321.22;4199686;33;19910;-86
2022/08/07 08:13:43;;;;;;;;;;;24.70;64.00;;;24.17;59.13;96325.97;4176090;34;20107;-86
2022/08/07 08:16:15;;;;;;;;;;;24.70;64.00;;;24.17;59.53;96326.81;4177470;34;19903;-86
2022/08/07 08:18:44;;;;;;;;;;;24.70;64.20;;;24.17;59.24;96329.63;4177582;34;19919;-86
2022/08/07 08:29:31;;;;;;;;;;;24.70;64.20;;;24.18;59.49;96336.84;4155835;34;20038;-85
2022/08/07 08:31:59;;;;;;;;;;;24.70;64.20;;;24.19;59.25;96332.88;4155402;34;20168;-85
2022/08/07 08:34:35;;;;;;;;;;;24.70;64.10;;;24.19;59.38;96327.28;4179201;34;20021;-85
2022/08/07 08:37:04;;;;;;;;;;;24.70;64.20;;;24.20;59.35;96322.47;4178818;34;20156;-84
2022/08/07 08:39:32;;;;;;;;;;;24.70;64.10;;;24.18;59.35;96331.25;4155823;34;20295;-85
2022/08/07 08:42:04;;;;;;;;;;;24.70;64.20;;;24.18;59.37;96322.84;4178340;34;19903;-85
2022/08/07 08:44:39;;;;;;;;;;;24.70;64.10;;;24.16;59.29;96333.56;4178745;34;20114;-85
2022/08/07 08:47:09;;;;;;;;;;;24.70;64.10;;;24.16;59.31;96327.97;4178608;34;19915;-86
2022/08/07 08:49:44;;;;;;;;;;;24.70;64.30;;;24.15;59.54;96331.94;4155591;34;20018;-84
2022/08/07 08:52:18;;;;;;;;;;;24.70;64.50;;;24.14;59.26;96324.72;4184570;33;20056;-86
2022/08/07 08:54:51;;;;;;;;;;;24.70;64.20;;;24.14;59.33;96327.53;4155822;34;19918;-84
2022/08/07 08:57:27;;;;;;;;;;;24.70;64.20;;;24.12;59.37;96324.25;4178479;34;19911;-87
2022/08/07 09:00:02;;;;;;;;;;;24.70;64.30;;;24.12;59.21;96327.06;4178637;34;20072;-85
2022/08/07 09:02:37;;;;;;;;;;;24.70;64.20;;;24.11;59.29;96319.03;4154945;34;19954;-85
2022/08/07 09:05:29;;;;;;;;;;;24.60;64.20;;;24.10;59.51;96318.22;4155694;34;20108;-85
2022/08/07 09:08:02;;;;;;;;;;;24.60;64.20;;;24.09;59.64;96315.78;4155653;34;19914;-85
2022/08/07 09:10:36;;;;;;;;;;;24.60;64.20;;;24.09;59.58;96318.56;4178411;34;19903;-86
2022/08/07 09:13:13;;;;;;;;;;;24.60;64.20;;;24.08;59.62;96320.53;4178786;34;19997;-85
2022/08/07 09:15:47;;;;;;;;;;;24.60;64.20;;;24.05;59.31;96321.28;4178337;34;19996;-85
2022/08/07 09:18:33;;;;;;;;;;;24.60;64.30;;;24.06;59.71;96322.91;4178404;34;20301;-85
2022/08/07 09:21:11;;;;;;;;;;;24.60;64.30;;;24.03;59.56;96318.00;4178402;34;20357;-86
2022/08/07 09:23:51;;;;;;;;;;;24.60;64.40;;;24.01;60.08;96318.34;4154795;34;20073;-86
2022/08/07 09:26:26;;;;;;;;;;;24.60;64.40;;;24.00;59.85;96318.72;4173882;34;19903;-85
2022/08/07 09:28:59;;;;;;;;;;;24.60;64.50;;;23.99;59.72;96317.09;4150782;34;19903;-85
2022/08/07 09:31:35;;;;;;;;;;;24.60;64.50;;;24.00;60.04;96310.34;4128188;34;19911;-85
2022/08/07 09:34:15;;;;;;;;;;;24.60;64.50;;;24.00;59.91;96318.72;4127430;34;19904;-85
2022/08/07 09:36:48;;;;;;;;;;;24.60;64.70;;;23.98;60.07;96316.28;4128069;34;19904;-86
2022/08/07 09:39:28;;;;;;;;;;;24.60;64.70;;;23.97;59.86;96313.84;4150651;34;20451;-84
2022/08/07 09:42:19;;;;;;;;;;;24.50;64.70;;;23.95;59.98;96311.38;4127752;34;19910;-85
2022/08/07 09:44:53;;;;;;;;;;;24.50;64.70;;;23.94;59.82;96309.75;4128072;34;20410;-85
2022/08/07 09:47:39;;;;;;;;;;;24.50;64.70;;;23.92;59.81;96306.47;4127829;34;19904;-85
2022/08/07 09:50:17;;;;;;;;;;;24.50;64.70;;;23.90;60.07;96303.22;4150688;34;20004;-86
2022/08/07 09:52:48;;;;;;;;;;;24.50;64.90;;;23.88;60.12;96302.78;4127415;34;19904;-85
2022/08/07 09:55:20;;;;;;;;;;;24.50;65.00;;;23.86;59.98;96296.75;4150509;34;20142;-85
2022/08/07 09:58:37;;;;;;;;;;;24.40;64.90;;;23.86;59.97;96291.16;4127698;34;20107;-85
2022/08/07 10:01:14;;;;;;;;;;;24.40;65.00;;;23.86;60.12;96286.34;4150541;34;19911;-84
2022/08/07 10:04:19;;;;;;;;;;;24.40;65.00;;;23.85;60.15;96295.91;4149725;34;19910;-84
2022/08/07 10:06:58;;;;;;;;;;;24.40;65.00;;;23.87;60.04;96289.97;4150418;34;20100;-85
2022/08/07 10:10:03;;;;;;;;;;;24.40;64.90;;;23.88;60.29;96286.81;4127648;34;20366;-86
2022/08/07 10:12:49;;;;;;;;;;;24.40;64.90;;;23.88;60.19;96289.63;4144271;34;19910;-86
2022/08/07 10:15:35;;;;;;;;;;;24.50;65.10;;;23.89;60.12;96280.06;4150269;34;19910;-86
2022/08/07 10:18:45;;;;;;;;;;;24.50;65.00;;;23.89;60.03;96279.22;4150170;34;20108;-85
2022/08/07 10:21:26;;;;;;;;;;;24.40;64.90;;;23.89;60.25;96280.06;4150363;34;20141;-85
2022/08/07 10:24:14;;;;;;;;;;;24.50;65.10;;;23.87;60.34;96276.81;4126936;34;19908;-85
2022/08/07 10:26:51;;;;;;;;;;;24.50;65.00;;;23.89;60.18;96282.03;4127552;34;20147;-86
2022/08/07 10:29:43;;;;;;;;;;;24.50;65.00;;;23.90;59.99;96278.91;4127471;34;20241;-87
2022/08/07 10:32:24;;;;;;;;;;;24.50;65.00;;;23.90;59.98;96281.69;4126823;34;19904;-84
2022/08/07 10:35:04;;;;;;;;;;;24.50;64.90;;;23.90;60.18;96266.88;4127438;34;20256;-85
2022/08/07 10:37:45;;;;;;;;;;;24.50;64.80;;;23.92;59.92;96260.94;4149980;34;19956;-85
2022/08/07 10:40:19;;;;;;;;;;;24.50;64.80;;;23.89;60.02;96257.69;4127384;34;19910;-86
2022/08/07 10:42:58;;;;;;;;;;;24.50;64.70;;;23.89;59.96;96263.28;4126824;34;19966;-86
2022/08/07 10:45:29;;;;;;;;;;;24.50;64.80;;;23.87;60.19;96260.03;4127326;34;20026;-85
2022/08/07 10:48:07;;;;;;;;;;;24.50;64.80;;;23.86;60.17;96249.22;4150865;34;20468;-85
2022/08/07 10:50:41;;;;;;;;;;;24.40;64.80;;;23.85;60.19;96255.97;4126906;34;20015;-84
2022/08/07 10:53:19;;;;;;;;;;;24.40;64.90;;;23.85;60.01;96255.97;4126649;34;19907;-84
2022/08/07 10:55:51;;;;;;;;;;;24.40;64.90;;;23.82;60.18;96249.09;4149877;34;20339;-85
2022/08/07 10:58:51;;;;;;;;;;;24.40;65.00;;;23.84;60.46;96254.34;4127264;34;19903;-85
2022/08/07 11:01:29;;;;;;;;;;;24.40;65.00;;;23.82;60.27;96246.28;4149775;34;20141;-85
2022/08/07 11:04:04;;;;;;;;;;;24.40;65.10;;;23.84;60.01;96249.56;4126536;34;19910;-86
2022/08/07 11:06:39;;;;;;;;;;;24.40;65.00;;;23.83;60.29;96252.72;4127190;34;19971;-85
2022/08/07 11:09:13;;;;;;;;;;;24.40;65.00;;;23.83;60.18;96245.13;4127058;34;20064;-85
2022/08/07 11:11:46;;;;;;;;;;;24.40;65.00;;;23.83;60.16;96242.34;4127215;34;20374;-86
2022/08/07 11:14:20;;;;;;;;;;;24.40;65.10;;;23.84;60.31;96243.97;4126217;34;20120;-86
2022/08/07 11:16:52;;;;;;;;;;;24.40;65.10;;;23.84;60.35;96229.97;4149636;34;19903;-85
2022/08/07 11:19:26;;;;;;;;;;;24.40;65.10;;;23.85;60.26;96234.41;4126882;34;20461;-85
2022/08/07 11:22:02;;;;;;;;;;;24.40;65.10;;;23.84;60.46;96218.00;4126969;34;19907;-85
2022/08/07 11:24:40;;;;;;;;;;;24.40;65.00;;;23.85;59.97;96230.81;4149513;34;19903;-86
2022/08/07 11:27:14;;;;;;;;;;;24.40;65.00;;;23.85;60.01;96217.63;4126993;34;19910;-85
2022/08/07 11:29:50;;;;;;;;;;;24.40;65.00;;;23.86;60.28;96219.25;4126914;34;19904;-86
2022/08/07 11:32:22;;;;;;;;;;;24.40;64.90;;;23.86;60.25;96215.66;4148968;34;20499;-86
2022/08/07 11:34:56;;;;;;;;;;;24.40;65.00;;;23.85;60.22;96217.63;4149397;34;19910;-86
2022/08/07 11:37:42;;;;;;;;;;;24.40;64.90;;;23.85;60.05;96216.84;4126997;34;20458;-86
2022/08/07 11:40:19;;;;;;;;;;;24.40;64.90;;;23.85;60.31;96211.25;4149430;34;20172;-86
2022/08/07 11:43:08;;;;;;;;;;;24.40;65.00;;;23.84;60.42;96213.22;4148890;34;20030;-85
2022/08/07 11:45:45;;;;;;;;;;;24.40;65.00;;;23.85;60.07;96216.84;4126830;34;20045;-85
2022/08/07 11:48:42;;;;;;;;;;;24.40;64.90;;;23.86;59.97;96218.47;4126771;34;19957;-85
2022/08/07 11:51:20;;;;;;;;;;;24.40;64.90;;;23.85;59.92;96217.63;4149469;34;20270;-85
2022/08/07 11:53:54;;;;;;;;;;;24.40;64.90;;;23.84;60.01;96216.00;4153230;34;19903;-85